createdAt,value
2018-11-05T00:04:05.948Z,21.95
2018-11-05T00:09:10.719Z,21.95
2018-11-05T00:14:14.506Z,21.95
2018-11-05T00:19:18.012Z,21.96
2018-11-05T00:24:22.840Z,21.96
2018-11-05T00:29:26.966Z,21.94
2018-11-05T00:34:30.530Z,21.97
2018-11-05T00:39:34.180Z,21.97
2018-11-05T00:44:37.798Z,21.99
2018-11-05T00:49:41.314Z,22.00
2018-11-05T00:54:44.774Z,22.01
2018-11-05T00:59:48.706Z,22.00
2018-11-05T01:04:52.615Z,22.01
2018-11-05T01:09:57.243Z,22.01
2018-11-05T01:15:01.575Z,22.02
2018-11-05T01:20:06.823Z,22.01
2018-11-05T01:25:10.968Z,22.04
2018-11-05T01:30:14.884Z,22.04
2018-11-05T01:35:18.428Z,22.04
2018-11-05T01:40:21.924Z,22.04
2018-11-05T01:45:25.526Z,22.06
2018-11-05T01:50:29.022Z,22.04
2018-11-05T01:55:32.570Z,22.06
2018-11-05T02:00:36.510Z,22.06
2018-11-05T02:05:40.485Z,22.06
2018-11-05T02:10:44.557Z,22.07
2018-11-05T02:15:49.434Z,22.06
2018-11-05T02:20:53.044Z,22.08
2018-11-05T02:25:56.506Z,22.07
2018-11-05T02:30:59.981Z,22.08
2018-11-05T02:36:03.427Z,22.06
2018-11-05T02:41:07.192Z,22.03
2018-11-05T02:46:10.678Z,21.99
2018-11-05T02:51:14.155Z,21.92
2018-11-05T02:56:17.600Z,21.88
2018-11-05T03:01:21.034Z,21.83
2018-11-05T03:06:24.456Z,21.83
2018-11-05T03:11:28.227Z,21.78
2018-11-05T03:16:31.693Z,21.74
2018-11-05T03:21:35.139Z,21.71
2018-11-05T03:26:38.573Z,21.67
2018-11-05T03:31:42.060Z,21.65
2018-11-05T03:36:45.505Z,21.60
2018-11-05T03:41:48.973Z,21.60
2018-11-05T03:46:52.845Z,21.62
2018-11-05T03:51:56.285Z,21.61
2018-11-05T03:56:59.741Z,21.61
2018-11-05T04:02:03.187Z,21.57
2018-11-05T04:07:06.618Z,21.57
2018-11-05T04:12:10.069Z,21.53
2018-11-05T04:17:13.518Z,21.54
2018-11-05T04:22:17.099Z,21.58
2018-11-05T04:27:20.567Z,21.54
2018-11-05T04:32:24.034Z,21.54
2018-11-05T04:37:27.489Z,21.51
2018-11-05T04:42:30.910Z,21.48
2018-11-05T04:47:34.415Z,21.39
2018-11-05T04:52:38.063Z,21.34
2018-11-05T04:57:41.523Z,21.34
2018-11-05T05:02:45.024Z,21.35
2018-11-05T05:07:48.511Z,21.34
2018-11-05T05:12:51.998Z,21.28
2018-11-05T05:17:55.440Z,21.27
2018-11-05T05:22:59.002Z,21.26
2018-11-05T05:28:02.364Z,21.25
2018-11-05T05:33:06.032Z,21.24
2018-11-05T05:38:09.452Z,21.22
2018-11-05T05:43:12.907Z,21.22
2018-11-05T05:48:16.362Z,21.20
2018-11-05T05:53:19.828Z,21.19
2018-11-05T05:58:23.304Z,21.18
2018-11-05T06:03:26.786Z,21.15
2018-11-05T06:08:30.251Z,21.16
2018-11-05T06:13:33.746Z,21.14
2018-11-05T06:18:37.198Z,21.11
2018-11-05T06:23:40.663Z,21.12
2018-11-05T06:28:44.200Z,21.09
2018-11-05T06:33:47.584Z,21.10
2018-11-05T06:38:51.083Z,21.10
2018-11-05T06:43:54.522Z,21.06
2018-11-05T06:48:58.175Z,21.06
2018-11-05T06:54:01.679Z,21.07
2018-11-05T06:59:05.184Z,21.04
2018-11-05T07:04:08.648Z,21.03
2018-11-05T07:09:12.665Z,21.02
2018-11-05T07:14:16.114Z,21.03
2018-11-05T07:19:19.813Z,21.00
2018-11-05T07:24:23.159Z,20.98
2018-11-05T07:29:26.636Z,20.97
2018-11-05T07:34:30.170Z,20.92
2018-11-05T07:39:33.711Z,20.49
2018-11-05T07:44:37.258Z,17.77
2018-11-05T07:49:40.767Z,17.23
2018-11-05T07:54:44.233Z,17.34
2018-11-05T07:59:47.691Z,16.99
2018-11-05T08:04:51.162Z,16.62
2018-11-05T08:09:54.607Z,16.40
2018-11-05T08:14:58.085Z,16.42
2018-11-05T08:20:01.615Z,16.94
2018-11-05T08:25:05.341Z,18.75
2018-11-05T08:30:12.796Z,19.43
2018-11-05T08:35:16.323Z,19.74
2018-11-05T08:40:21.948Z,19.88
2018-11-05T08:45:26.523Z,19.96
2018-11-05T08:50:30.014Z,19.72
2018-11-05T08:55:33.435Z,20.06
2018-11-05T09:00:42.195Z,20.22
2018-11-05T09:05:45.652Z,20.28
2018-11-05T09:10:49.432Z,20.31
2018-11-05T09:15:52.565Z,17.63
2018-11-05T09:20:56.137Z,16.98
2018-11-05T09:26:00.221Z,16.85
2018-11-05T09:31:03.683Z,16.37
2018-11-05T09:36:07.130Z,16.52
2018-11-05T09:41:10.558Z,16.44
2018-11-05T09:46:14.019Z,16.56
2018-11-05T09:51:17.459Z,16.62
2018-11-05T09:56:20.938Z,16.69
2018-11-05T10:01:24.395Z,16.62
2018-11-05T10:06:27.880Z,16.88
2018-11-05T10:11:31.323Z,17.61
2018-11-05T10:16:34.766Z,19.03
2018-11-05T10:21:38.243Z,19.65
2018-11-05T10:26:41.687Z,20.08
2018-11-05T10:31:45.133Z,20.32
2018-11-05T10:36:48.583Z,20.35
2018-11-05T10:41:52.022Z,20.30
2018-11-05T10:46:55.512Z,20.19
2018-11-05T10:51:59.129Z,20.15
2018-11-05T10:57:02.490Z,20.11
2018-11-05T11:02:11.251Z,20.16
2018-11-05T11:07:14.707Z,20.19
2018-11-05T11:12:18.186Z,20.16
2018-11-05T11:17:21.635Z,20.12
2018-11-05T11:22:25.094Z,20.15
2018-11-05T11:27:28.583Z,20.11
2018-11-05T11:32:32.098Z,20.07
2018-11-05T11:37:35.562Z,20.15
2018-11-05T11:42:39.915Z,20.11
2018-11-05T11:47:43.348Z,20.11
2018-11-05T11:52:47.075Z,20.10
2018-11-05T11:57:50.375Z,20.09
2018-11-05T12:02:58.396Z,20.09
2018-11-05T12:08:01.838Z,20.11
2018-11-05T12:13:05.365Z,20.09
2018-11-05T12:18:08.793Z,20.11
2018-11-05T12:23:12.254Z,20.10
2018-11-05T12:28:15.707Z,20.07
2018-11-05T12:33:19.170Z,20.06
2018-11-05T12:38:22.715Z,20.09
2018-11-05T12:43:26.387Z,20.07
2018-11-05T12:48:29.825Z,20.08
2018-11-05T12:53:33.279Z,20.07
2018-11-05T12:58:36.739Z,20.11
2018-11-05T13:03:40.180Z,20.12
2018-11-05T13:08:43.879Z,20.22
2018-11-05T13:13:47.315Z,20.34
2018-11-05T13:18:50.823Z,20.31
2018-11-05T13:23:54.311Z,20.29
2018-11-05T13:28:57.792Z,20.22
2018-11-05T13:34:01.240Z,20.31
2018-11-05T13:39:06.385Z,20.23
2018-11-05T13:44:09.826Z,20.24
2018-11-05T13:49:13.384Z,20.33
2018-11-05T13:54:16.913Z,20.43
2018-11-05T13:59:20.330Z,20.41
2018-11-05T14:04:23.783Z,20.35
2018-11-05T14:09:27.271Z,20.42
2018-11-05T14:14:30.764Z,20.41
2018-11-05T14:19:34.271Z,20.38
2018-11-05T14:24:37.763Z,20.36
2018-11-05T14:29:41.711Z,20.35
2018-11-05T14:34:44.778Z,20.39
2018-11-05T14:39:48.254Z,20.43
2018-11-05T14:44:51.755Z,20.36
2018-11-05T14:49:55.314Z,20.33
2018-11-05T14:54:58.805Z,20.28
2018-11-05T15:00:02.386Z,20.34
2018-11-05T15:05:07.242Z,20.30
2018-11-05T15:10:17.383Z,20.30
2018-11-05T15:15:21.514Z,20.30
2018-11-05T15:20:26.027Z,20.29
2018-11-05T15:25:29.507Z,20.30
2018-11-05T15:30:33.000Z,20.31
2018-11-05T15:35:38.689Z,20.30
2018-11-05T15:40:42.183Z,20.11
2018-11-05T15:45:45.650Z,20.21
2018-11-05T15:50:50.610Z,20.21
2018-11-05T15:55:55.058Z,20.22
2018-11-05T16:01:01.147Z,20.26
2018-11-05T16:06:05.459Z,20.26
2018-11-05T16:11:08.912Z,20.29
2018-11-05T16:16:12.466Z,20.28
2018-11-05T16:21:17.512Z,20.29
2018-11-05T16:26:21.591Z,20.29
2018-11-05T16:31:26.474Z,20.31
2018-11-05T16:36:29.960Z,20.37
2018-11-05T16:41:33.439Z,20.39
2018-11-05T16:46:36.946Z,20.42
2018-11-05T16:51:41.147Z,20.42
2018-11-05T16:56:45.168Z,20.43
2018-11-05T17:01:49.618Z,20.43
2018-11-05T17:06:53.192Z,20.46
2018-11-05T17:11:56.672Z,20.86
2018-11-05T17:17:00.230Z,21.32
2018-11-05T17:22:03.694Z,21.54
2018-11-05T17:27:07.142Z,21.67
2018-11-05T17:32:10.583Z,21.62
2018-11-05T17:37:14.034Z,21.66
2018-11-05T17:42:17.509Z,21.78
2018-11-05T17:47:20.997Z,21.73
2018-11-05T17:52:24.538Z,21.79
2018-11-05T17:57:28.021Z,21.76
2018-11-05T18:02:31.519Z,21.69
2018-11-05T18:07:36.492Z,21.64
2018-11-05T18:12:39.954Z,21.69
2018-11-05T18:17:44.556Z,21.82
2018-11-05T18:22:48.016Z,21.92
2018-11-05T18:27:51.952Z,21.96
2018-11-05T18:32:55.510Z,21.98
2018-11-05T18:37:59.022Z,21.95
2018-11-05T18:43:02.607Z,21.91
2018-11-05T18:48:06.107Z,21.89
2018-11-05T18:53:09.602Z,21.87
2018-11-05T18:58:13.108Z,21.87
2018-11-05T19:03:16.611Z,21.86
2018-11-05T19:08:20.070Z,21.91
2018-11-05T19:13:23.550Z,22.11
2018-11-05T19:18:27.085Z,22.07
2018-11-05T19:23:30.659Z,22.12
2018-11-05T19:28:34.094Z,22.11
2018-11-05T19:33:37.528Z,22.07
2018-11-05T19:38:41.017Z,22.04
2018-11-05T19:43:44.466Z,22.02
2018-11-05T19:48:47.956Z,22.06
2018-11-05T19:53:51.413Z,22.00
2018-11-05T19:58:54.873Z,22.00
2018-11-05T20:03:58.451Z,21.99
2018-11-05T20:09:01.915Z,22.05
2018-11-05T20:14:05.374Z,22.02
2018-11-05T20:19:08.881Z,21.97
2018-11-05T20:24:12.383Z,21.94
2018-11-05T20:29:15.825Z,21.96
2018-11-05T20:34:19.709Z,21.95
2018-11-05T20:39:22.971Z,21.93
2018-11-05T20:44:26.520Z,21.92
2018-11-05T20:49:29.981Z,21.91
2018-11-05T20:54:33.442Z,21.89
2018-11-05T20:59:36.970Z,21.88
2018-11-05T21:04:40.445Z,21.89
2018-11-05T21:09:44.114Z,21.89
2018-11-05T21:14:47.664Z,21.87
2018-11-05T21:19:51.160Z,21.89
2018-11-05T21:24:54.659Z,21.82
2018-11-05T21:29:58.117Z,21.84
2018-11-05T21:35:01.643Z,21.87
2018-11-05T21:40:06.822Z,21.83
2018-11-05T21:45:11.595Z,21.86
2018-11-05T21:50:16.317Z,21.82
2018-11-05T21:55:19.762Z,21.85
2018-11-05T22:00:25.416Z,21.79
2018-11-05T22:05:28.898Z,21.80
2018-11-05T22:10:32.330Z,21.80
2018-11-05T22:15:45.324Z,21.82
2018-11-05T22:20:48.763Z,21.81
2018-11-05T22:25:52.220Z,21.78
2018-11-05T22:30:55.746Z,21.76
2018-11-05T22:35:59.205Z,21.76
2018-11-05T22:41:02.670Z,21.76
2018-11-05T22:46:06.581Z,21.80
2018-11-05T22:51:10.026Z,21.78
2018-11-05T22:56:13.528Z,21.79
2018-11-05T23:01:22.212Z,21.75
2018-11-05T23:06:25.715Z,21.73
2018-11-05T23:11:29.165Z,21.76
2018-11-05T23:16:32.674Z,21.76
2018-11-05T23:21:36.130Z,21.74
2018-11-05T23:26:39.549Z,21.72
2018-11-05T23:31:42.982Z,21.72
2018-11-05T23:36:46.437Z,21.73
2018-11-05T23:41:49.876Z,21.73
2018-11-05T23:46:53.333Z,21.73
2018-11-05T23:51:56.960Z,21.70
2018-11-05T23:57:00.271Z,21.68
